sensor_id;sensor_type;location;lat;lon;timestamp;P1;durP1;ratioP1;P2;durP2;ratioP2
27847;SDS011;15212;48.830;8.730;2022-08-01T00:00:12;6.62;;;2.40;;
27847;SDS011;15212;48.830;8.730;2022-08-01T00:02:41;4.30;;;2.25;;
27847;SDS011;15212;48.830;8.730;2022-08-01T00:05:09;3.47;;;2.40;;
27847;SDS011;15212;48.830;8.730;2022-08-01T00:07:38;2.85;;;2.37;;
27847;SDS011;15212;48.830;8.730;2022-08-01T00:10:10;3.55;;;2.60;;
27847;SDS011;15212;48.830;8.730;2022-08-01T00:12:39;3.40;;;2.40;;
27847;SDS011;15212;48.830;8.730;2022-08-01T00:15:08;3.47;;;2.20;;
27847;SDS011;15212;48.830;8.730;2022-08-01T00:17:40;3.12;;;2.10;;
27847;SDS011;15212;48.830;8.730;2022-08-01T00:20:11;4.35;;;2.47;;
27847;SDS011;15212;48.830;8.730;2022-08-01T00:22:41;4.08;;;2.77;;
27847;SDS011;15212;48.830;8.730;2022-08-01T00:25:09;2.95;;;2.40;;
27847;SDS011;15212;48.830;8.730;2022-08-01T00:27:38;4.12;;;2.70;;
27847;SDS011;15212;48.830;8.730;2022-08-01T00:30:06;3.15;;;2.33;;
27847;SDS011;15212;48.830;8.730;2022-08-01T00:32:35;4.33;;;2.30;;
27847;SDS011;15212;48.830;8.730;2022-08-01T00:35:03;4.72;;;2.70;;
27847;SDS011;15212;48.830;8.730;2022-08-01T00:37:32;3.35;;;2.58;;
27847;SDS011;15212;48.830;8.730;2022-08-01T00:40:00;3.58;;;2.60;;
27847;SDS011;15212;48.830;8.730;2022-08-01T00:42:29;4.92;;;2.70;;
27847;SDS011;15212;48.830;8.730;2022-08-01T00:44:57;3.35;;;2.40;;
27847;SDS011;15212;48.830;8.730;2022-08-01T00:47:26;4.20;;;2.60;;
27847;SDS011;15212;48.830;8.730;2022-08-01T00:49:54;3.90;;;2.70;;
27847;SDS011;15212;48.830;8.730;2022-08-01T00:52:23;6.60;;;2.80;;
27847;SDS011;15212;48.830;8.730;2022-08-01T00:54:51;3.10;;;2.50;;
27847;SDS011;15212;48.830;8.730;2022-08-01T00:57:20;4.28;;;2.30;;
27847;SDS011;15212;48.830;8.730;2022-08-01T00:59:49;3.20;;;2.22;;
27847;SDS011;15212;48.830;8.730;2022-08-01T01:02:18;3.58;;;2.47;;
27847;SDS011;15212;48.830;8.730;2022-08-01T01:04:47;3.12;;;2.40;;
27847;SDS011;15212;48.830;8.730;2022-08-01T01:07:17;4.70;;;2.60;;
27847;SDS011;15212;48.830;8.730;2022-08-01T01:10:12;5.33;;;2.70;;
27847;SDS011;15212;48.830;8.730;2022-08-01T01:15:41;5.20;;;2.85;;
27847;SDS011;15212;48.830;8.730;2022-08-01T01:29:52;4.37;;;2.30;;
27847;SDS011;15212;48.830;8.730;2022-08-01T01:32:22;2.92;;;2.42;;
27847;SDS011;15212;48.830;8.730;2022-08-01T01:35:07;3.87;;;2.35;;
27847;SDS011;15212;48.830;8.730;2022-08-01T01:37:39;9.25;;;2.75;;
27847;SDS011;15212;48.830;8.730;2022-08-01T01:40:09;5.50;;;2.40;;
27847;SDS011;15212;48.830;8.730;2022-08-01T01:42:41;4.20;;;2.60;;
27847;SDS011;15212;48.830;8.730;2022-08-01T01:45:10;4.08;;;2.45;;
27847;SDS011;15212;48.830;8.730;2022-08-01T01:47:41;6.62;;;2.65;;
27847;SDS011;15212;48.830;8.730;2022-08-01T01:50:11;3.87;;;2.33;;
27847;SDS011;15212;48.830;8.730;2022-08-01T01:52:41;8.10;;;2.70;;
27847;SDS011;15212;48.830;8.730;2022-08-01T01:55:11;3.02;;;2.37;;
27847;SDS011;15212;48.830;8.730;2022-08-01T01:57:41;3.30;;;2.47;;
27847;SDS011;15212;48.830;8.730;2022-08-01T02:00:11;5.42;;;2.45;;
27847;SDS011;15212;48.830;8.730;2022-08-01T02:02:41;5.22;;;2.77;;
27847;SDS011;15212;48.830;8.730;2022-08-01T02:05:11;3.90;;;2.50;;
27847;SDS011;15212;48.830;8.730;2022-08-01T02:07:40;4.90;;;2.30;;
27847;SDS011;15212;48.830;8.730;2022-08-01T02:10:10;4.00;;;2.35;;
27847;SDS011;15212;48.830;8.730;2022-08-01T02:12:41;4.60;;;2.30;;
27847;SDS011;15212;48.830;8.730;2022-08-01T02:15:12;6.35;;;2.77;;
27847;SDS011;15212;48.830;8.730;2022-08-01T02:17:42;4.03;;;2.60;;
27847;SDS011;15212;48.830;8.730;2022-08-01T02:20:14;3.85;;;2.37;;
27847;SDS011;15212;48.830;8.730;2022-08-01T02:22:50;3.20;;;2.47;;
27847;SDS011;15212;48.830;8.730;2022-08-01T02:25:36;4.05;;;2.47;;
27847;SDS011;15212;48.830;8.730;2022-08-01T02:30:52;4.75;;;2.10;;
27847;SDS011;15212;48.830;8.730;2022-08-01T02:33:25;3.55;;;2.42;;
27847;SDS011;15212;48.830;8.730;2022-08-01T02:35:58;3.65;;;2.12;;
27847;SDS011;15212;48.830;8.730;2022-08-01T02:38:28;3.42;;;2.27;;
27847;SDS011;15212;48.830;8.730;2022-08-01T02:41:07;4.50;;;2.50;;
27847;SDS011;15212;48.830;8.730;2022-08-01T02:43:37;5.75;;;2.30;;
27847;SDS011;15212;48.830;8.730;2022-08-01T02:46:11;2.70;;;2.10;;
27847;SDS011;15212;48.830;8.730;2022-08-01T02:48:42;2.58;;;2.20;;
27847;SDS011;15212;48.830;8.730;2022-08-01T02:51:12;3.02;;;2.20;;
27847;SDS011;15212;48.830;8.730;2022-08-01T02:53:42;5.22;;;2.50;;
27847;SDS011;15212;48.830;8.730;2022-08-01T02:56:13;4.58;;;2.27;;
27847;SDS011;15212;48.830;8.730;2022-08-01T02:58:42;2.87;;;2.00;;
27847;SDS011;15212;48.830;8.730;2022-08-01T03:01:14;3.77;;;2.27;;
27847;SDS011;15212;48.830;8.730;2022-08-01T03:03:44;2.67;;;2.00;;
27847;SDS011;15212;48.830;8.730;2022-08-01T03:06:12;2.33;;;1.80;;
27847;SDS011;15212;48.830;8.730;2022-08-01T03:08:42;3.52;;;2.08;;
27847;SDS011;15212;48.830;8.730;2022-08-01T03:11:11;3.47;;;2.15;;
27847;SDS011;15212;48.830;8.730;2022-08-01T03:13:41;3.72;;;2.25;;
27847;SDS011;15212;48.830;8.730;2022-08-01T03:16:11;2.37;;;2.10;;
27847;SDS011;15212;48.830;8.730;2022-08-01T03:18:40;2.33;;;1.92;;
27847;SDS011;15212;48.830;8.730;2022-08-01T03:21:12;3.60;;;2.00;;
27847;SDS011;15212;48.830;8.730;2022-08-01T03:23:41;2.52;;;1.90;;
27847;SDS011;15212;48.830;8.730;2022-08-01T03:26:12;3.20;;;2.10;;
27847;SDS011;15212;48.830;8.730;2022-08-01T03:28:41;2.98;;;1.90;;
27847;SDS011;15212;48.830;8.730;2022-08-01T03:31:12;4.92;;;2.17;;
27847;SDS011;15212;48.830;8.730;2022-08-01T03:33:42;5.10;;;2.12;;
27847;SDS011;15212;48.830;8.730;2022-08-01T03:36:10;4.42;;;2.17;;
27847;SDS011;15212;48.830;8.730;2022-08-01T03:38:41;3.45;;;2.15;;
27847;SDS011;15212;48.830;8.730;2022-08-01T03:41:19;2.70;;;1.98;;
27847;SDS011;15212;48.830;8.730;2022-08-01T03:43:48;2.85;;;2.02;;
27847;SDS011;15212;48.830;8.730;2022-08-01T03:46:20;2.80;;;2.27;;
27847;SDS011;15212;48.830;8.730;2022-08-01T03:49:03;3.12;;;1.70;;
27847;SDS011;15212;48.830;8.730;2022-08-01T03:51:34;2.92;;;1.95;;
27847;SDS011;15212;48.830;8.730;2022-08-01T03:54:06;4.08;;;2.33;;
27847;SDS011;15212;48.830;8.730;2022-08-01T03:56:36;6.72;;;2.00;;
27847;SDS011;15212;48.830;8.730;2022-08-01T03:59:05;4.22;;;2.17;;
27847;SDS011;15212;48.830;8.730;2022-08-01T04:01:35;3.75;;;2.20;;
27847;SDS011;15212;48.830;8.730;2022-08-01T04:04:04;2.42;;;2.05;;
27847;SDS011;15212;48.830;8.730;2022-08-01T04:06:36;2.27;;;1.98;;
27847;SDS011;15212;48.830;8.730;2022-08-01T04:09:07;2.87;;;1.85;;
27847;SDS011;15212;48.830;8.730;2022-08-01T04:11:36;5.50;;;2.05;;
27847;SDS011;15212;48.830;8.730;2022-08-01T04:14:04;2.47;;;2.00;;
27847;SDS011;15212;48.830;8.730;2022-08-01T04:16:33;3.25;;;1.80;;
27847;SDS011;15212;48.830;8.730;2022-08-01T04:19:01;3.87;;;2.08;;
27847;SDS011;15212;48.830;8.730;2022-08-01T04:21:31;3.27;;;2.20;;
27847;SDS011;15212;48.830;8.730;2022-08-01T04:24:04;3.42;;;1.92;;
27847;SDS011;15212;48.830;8.730;2022-08-01T04:26:34;4.42;;;2.02;;
27847;SDS011;15212;48.830;8.730;2022-08-01T04:29:06;4.20;;;2.00;;
27847;SDS011;15212;48.830;8.730;2022-08-01T04:31:36;5.00;;;1.67;;
27847;SDS011;15212;48.830;8.730;2022-08-01T04:34:06;3.20;;;2.00;;
27847;SDS011;15212;48.830;8.730;2022-08-01T04:36:36;4.75;;;1.87;;
27847;SDS011;15212;48.830;8.730;2022-08-01T04:39:07;2.12;;;1.80;;
27847;SDS011;15212;48.830;8.730;2022-08-01T04:41:37;2.15;;;1.57;;
27847;SDS011;15212;48.830;8.730;2022-08-01T04:44:07;3.52;;;1.80;;
27847;SDS011;15212;48.830;8.730;2022-08-01T04:46:35;2.95;;;1.92;;
27847;SDS011;15212;48.830;8.730;2022-08-01T04:49:05;4.95;;;1.62;;
27847;SDS011;15212;48.830;8.730;2022-08-01T04:51:35;2.72;;;1.90;;
27847;SDS011;15212;48.830;8.730;2022-08-01T04:54:03;2.80;;;1.72;;
27847;SDS011;15212;48.830;8.730;2022-08-01T04:56:33;2.50;;;1.82;;
27847;SDS011;15212;48.830;8.730;2022-08-01T04:59:01;5.33;;;2.10;;
27847;SDS011;15212;48.830;8.730;2022-08-01T05:01:48;3.08;;;2.20;;
27847;SDS011;15212;48.830;8.730;2022-08-01T05:04:17;2.10;;;1.80;;
27847;SDS011;15212;48.830;8.730;2022-08-01T05:06:45;2.85;;;2.02;;
27847;SDS011;15212;48.830;8.730;2022-08-01T05:09:13;3.75;;;2.58;;
27847;SDS011;15212;48.830;8.730;2022-08-01T05:11:42;4.83;;;2.22;;
27847;SDS011;15212;48.830;8.730;2022-08-01T05:14:10;3.40;;;2.00;;
27847;SDS011;15212;48.830;8.730;2022-08-01T05:16:38;5.42;;;2.10;;
27847;SDS011;15212;48.830;8.730;2022-08-01T05:19:07;6.40;;;2.25;;
27847;SDS011;15212;48.830;8.730;2022-08-01T05:21:36;7.25;;;2.00;;
27847;SDS011;15212;48.830;8.730;2022-08-01T05:24:05;2.52;;;1.87;;
27847;SDS011;15212;48.830;8.730;2022-08-01T05:26:33;3.05;;;2.12;;
27847;SDS011;15212;48.830;8.730;2022-08-01T05:29:02;6.42;;;2.20;;
27847;SDS011;15212;48.830;8.730;2022-08-01T05:31:31;6.47;;;2.27;;
27847;SDS011;15212;48.830;8.730;2022-08-01T05:34:00;2.47;;;1.80;;
27847;SDS011;15212;48.830;8.730;2022-08-01T05:36:29;6.17;;;2.30;;
27847;SDS011;15212;48.830;8.730;2022-08-01T05:38:58;4.03;;;1.50;;
27847;SDS011;15212;48.830;8.730;2022-08-01T05:41:27;3.47;;;1.80;;
27847;SDS011;15212;48.830;8.730;2022-08-01T05:43:55;5.83;;;1.75;;
27847;SDS011;15212;48.830;8.730;2022-08-01T05:46:24;4.50;;;1.82;;
27847;SDS011;15212;48.830;8.730;2022-08-01T05:48:52;2.37;;;1.40;;
27847;SDS011;15212;48.830;8.730;2022-08-01T05:51:21;2.83;;;1.60;;
27847;SDS011;15212;48.830;8.730;2022-08-01T05:53:50;3.17;;;1.80;;
27847;SDS011;15212;48.830;8.730;2022-08-01T05:56:20;2.50;;;1.60;;
27847;SDS011;15212;48.830;8.730;2022-08-01T05:58:49;2.10;;;1.50;;
27847;SDS011;15212;48.830;8.730;2022-08-01T06:01:18;2.40;;;1.72;;
27847;SDS011;15212;48.830;8.730;2022-08-01T06:03:46;2.37;;;1.60;;
27847;SDS011;15212;48.830;8.730;2022-08-01T06:06:15;2.75;;;1.55;;
27847;SDS011;15212;48.830;8.730;2022-08-01T06:08:43;1.82;;;1.50;;
27847;SDS011;15212;48.830;8.730;2022-08-01T06:11:11;1.82;;;1.45;;
27847;SDS011;15212;48.830;8.730;2022-08-01T06:13:40;3.27;;;1.70;;
27847;SDS011;15212;48.830;8.730;2022-08-01T06:16:08;2.25;;;1.15;;
27847;SDS011;15212;48.830;8.730;2022-08-01T06:18:37;3.05;;;1.30;;
27847;SDS011;15212;48.830;8.730;2022-08-01T06:21:05;1.42;;;1.15;;
27847;SDS011;15212;48.830;8.730;2022-08-01T06:23:33;3.25;;;1.17;;
27847;SDS011;15212;48.830;8.730;2022-08-01T06:26:02;2.17;;;1.22;;
27847;SDS011;15212;48.830;8.730;2022-08-01T06:28:31;2.25;;;1.10;;
27847;SDS011;15212;48.830;8.730;2022-08-01T06:30:59;1.87;;;1.10;;
27847;SDS011;15212;48.830;8.730;2022-08-01T06:33:28;2.67;;;1.05;;
27847;SDS011;15212;48.830;8.730;2022-08-01T06:35:56;3.00;;;1.37;;
27847;SDS011;15212;48.830;8.730;2022-08-01T06:38:24;2.95;;;1.00;;
27847;SDS011;15212;48.830;8.730;2022-08-01T06:40:53;1.45;;;0.90;;
27847;SDS011;15212;48.830;8.730;2022-08-01T06:43:21;1.30;;;0.93;;
27847;SDS011;15212;48.830;8.730;2022-08-01T06:45:50;1.75;;;1.22;;
27847;SDS011;15212;48.830;8.730;2022-08-01T06:48:18;1.72;;;1.00;;
27847;SDS011;15212;48.830;8.730;2022-08-01T06:50:46;1.42;;;0.98;;
27847;SDS011;15212;48.830;8.730;2022-08-01T06:53:15;1.75;;;1.10;;
27847;SDS011;15212;48.830;8.730;2022-08-01T06:55:43;3.35;;;1.30;;
27847;SDS011;15212;48.830;8.730;2022-08-01T06:58:11;2.02;;;1.30;;
27847;SDS011;15212;48.830;8.730;2022-08-01T07:00:40;2.20;;;1.10;;
27847;SDS011;15212;48.830;8.730;2022-08-01T07:03:08;1.82;;;1.05;;
27847;SDS011;15212;48.830;8.730;2022-08-01T07:05:36;1.50;;;1.20;;
27847;SDS011;15212;48.830;8.730;2022-08-01T07:08:05;3.55;;;1.32;;
27847;SDS011;15212;48.830;8.730;2022-08-01T07:10:33;2.47;;;1.30;;
27847;SDS011;15212;48.830;8.730;2022-08-01T07:13:02;2.10;;;1.27;;
27847;SDS011;15212;48.830;8.730;2022-08-01T07:15:30;1.67;;;1.20;;
27847;SDS011;15212;48.830;8.730;2022-08-01T07:17:58;2.92;;;1.45;;
27847;SDS011;15212;48.830;8.730;2022-08-01T07:20:28;1.72;;;1.20;;
27847;SDS011;15212;48.830;8.730;2022-08-01T07:22:57;1.95;;;1.40;;
27847;SDS011;15212;48.830;8.730;2022-08-01T07:25:25;1.85;;;1.22;;
27847;SDS011;15212;48.830;8.730;2022-08-01T07:27:54;2.15;;;1.30;;
27847;SDS011;15212;48.830;8.730;2022-08-01T07:30:22;2.65;;;1.30;;
27847;SDS011;15212;48.830;8.730;2022-08-01T07:32:51;1.72;;;1.20;;
27847;SDS011;15212;48.830;8.730;2022-08-01T07:35:19;2.17;;;1.60;;
27847;SDS011;15212;48.830;8.730;2022-08-01T07:37:48;6.20;;;1.52;;
27847;SDS011;15212;48.830;8.730;2022-08-01T07:40:16;1.87;;;1.40;;
27847;SDS011;15212;48.830;8.730;2022-08-01T07:42:46;2.62;;;1.70;;
27847;SDS011;15212;48.830;8.730;2022-08-01T07:45:14;2.00;;;1.60;;
27847;SDS011;15212;48.830;8.730;2022-08-01T07:47:43;2.98;;;1.80;;
27847;SDS011;15212;48.830;8.730;2022-08-01T07:50:12;3.30;;;2.17;;
27847;SDS011;15212;48.830;8.730;2022-08-01T07:52:41;4.22;;;1.70;;
27847;SDS011;15212;48.830;8.730;2022-08-01T07:55:10;2.77;;;1.92;;
27847;SDS011;15212;48.830;8.730;2022-08-01T07:57:39;3.00;;;1.90;;
27847;SDS011;15212;48.830;8.730;2022-08-01T08:00:07;2.62;;;2.00;;
27847;SDS011;15212;48.830;8.730;2022-08-01T08:02:36;3.10;;;1.50;;
27847;SDS011;15212;48.830;8.730;2022-08-01T08:05:05;3.72;;;2.00;;
27847;SDS011;15212;48.830;8.730;2022-08-01T08:07:33;3.77;;;1.87;;
27847;SDS011;15212;48.830;8.730;2022-08-01T08:10:03;3.92;;;2.12;;
27847;SDS011;15212;48.830;8.730;2022-08-01T08:12:32;3.70;;;2.00;;
27847;SDS011;15212;48.830;8.730;2022-08-01T08:15:00;3.85;;;1.90;;
27847;SDS011;15212;48.830;8.730;2022-08-01T08:17:30;2.72;;;2.10;;
27847;SDS011;15212;48.830;8.730;2022-08-01T08:19:59;3.40;;;2.50;;
27847;SDS011;15212;48.830;8.730;2022-08-01T08:22:28;5.65;;;3.08;;
27847;SDS011;15212;48.830;8.730;2022-08-01T08:24:56;4.50;;;2.75;;
27847;SDS011;15212;48.830;8.730;2022-08-01T08:27:25;4.10;;;2.90;;
27847;SDS011;15212;48.830;8.730;2022-08-01T08:29:53;5.20;;;2.33;;
27847;SDS011;15212;48.830;8.730;2022-08-01T08:32:22;4.47;;;2.47;;
27847;SDS011;15212;48.830;8.730;2022-08-01T08:34:51;3.22;;;2.40;;
27847;SDS011;15212;48.830;8.730;2022-08-01T08:37:19;2.55;;;2.20;;
27847;SDS011;15212;48.830;8.730;2022-08-01T08:39:48;3.77;;;2.17;;
27847;SDS011;15212;48.830;8.730;2022-08-01T08:42:17;4.65;;;2.62;;
27847;SDS011;15212;48.830;8.730;2022-08-01T08:44:46;3.72;;;2.67;;
27847;SDS011;15212;48.830;8.730;2022-08-01T08:47:14;4.30;;;2.90;;
27847;SDS011;15212;48.830;8.730;2022-08-01T08:49:44;4.85;;;2.60;;
27847;SDS011;15212;48.830;8.730;2022-08-01T08:52:14;3.35;;;2.70;;
27847;SDS011;15212;48.830;8.730;2022-08-01T08:54:46;4.85;;;2.52;;
27847;SDS011;15212;48.830;8.730;2022-08-01T08:57:18;4.67;;;2.90;;
27847;SDS011;15212;48.830;8.730;2022-08-01T08:59:47;5.67;;;2.70;;
27847;SDS011;15212;48.830;8.730;2022-08-01T09:02:18;4.58;;;2.50;;
27847;SDS011;15212;48.830;8.730;2022-08-01T09:04:48;3.27;;;2.80;;
27847;SDS011;15212;48.830;8.730;2022-08-01T09:07:17;4.40;;;2.40;;
27847;SDS011;15212;48.830;8.730;2022-08-01T09:09:45;3.37;;;2.65;;
27847;SDS011;15212;48.830;8.730;2022-08-01T09:12:18;5.55;;;2.60;;
27847;SDS011;15212;48.830;8.730;2022-08-01T09:14:47;5.17;;;3.10;;
27847;SDS011;15212;48.830;8.730;2022-08-01T09:17:17;4.17;;;2.87;;
27847;SDS011;15212;48.830;8.730;2022-08-01T09:19:48;5.37;;;2.77;;
27847;SDS011;15212;48.830;8.730;2022-08-01T09:22:19;4.72;;;2.60;;
27847;SDS011;15212;48.830;8.730;2022-08-01T09:25:24;4.85;;;2.92;;
27847;SDS011;15212;48.830;8.730;2022-08-01T09:27:36;10.28;;;2.87;;
27847;SDS011;15212;48.830;8.730;2022-08-01T09:30:15;4.00;;;2.87;;
27847;SDS011;15212;48.830;8.730;2022-08-01T09:32:55;4.53;;;2.83;;
27847;SDS011;15212;48.830;8.730;2022-08-01T09:35:30;4.05;;;2.67;;
27847;SDS011;15212;48.830;8.730;2022-08-01T09:40:50;4.22;;;2.47;;
27847;SDS011;15212;48.830;8.730;2022-08-01T09:43:22;4.83;;;2.37;;
27847;SDS011;15212;48.830;8.730;2022-08-01T09:45:53;3.22;;;2.40;;
27847;SDS011;15212;48.830;8.730;2022-08-01T09:48:22;4.15;;;2.42;;
27847;SDS011;15212;48.830;8.730;2022-08-01T09:50:52;5.17;;;2.50;;
27847;SDS011;15212;48.830;8.730;2022-08-01T09:53:21;4.15;;;2.47;;
27847;SDS011;15212;48.830;8.730;2022-08-01T09:55:49;7.28;;;2.42;;
27847;SDS011;15212;48.830;8.730;2022-08-01T09:58:19;3.95;;;2.50;;
27847;SDS011;15212;48.830;8.730;2022-08-01T10:00:57;2.95;;;2.20;;
27847;SDS011;15212;48.830;8.730;2022-08-01T10:03:29;3.72;;;2.35;;
27847;SDS011;15212;48.830;8.730;2022-08-01T10:05:58;3.52;;;2.30;;
27847;SDS011;15212;48.830;8.730;2022-08-01T10:08:27;3.42;;;2.70;;
27847;SDS011;15212;48.830;8.730;2022-08-01T10:11:07;3.87;;;2.22;;
27847;SDS011;15212;48.830;8.730;2022-08-01T10:13:38;3.55;;;2.25;;
27847;SDS011;15212;48.830;8.730;2022-08-01T10:16:07;3.35;;;2.30;;
27847;SDS011;15212;48.830;8.730;2022-08-01T10:18:37;3.58;;;2.42;;
27847;SDS011;15212;48.830;8.730;2022-08-01T10:21:08;3.40;;;2.40;;
27847;SDS011;15212;48.830;8.730;2022-08-01T10:23:38;3.27;;;2.17;;
27847;SDS011;15212;48.830;8.730;2022-08-01T10:26:09;5.10;;;2.45;;
27847;SDS011;15212;48.830;8.730;2022-08-01T10:28:39;2.67;;;2.33;;
27847;SDS011;15212;48.830;8.730;2022-08-01T10:31:11;2.50;;;2.20;;
27847;SDS011;15212;48.830;8.730;2022-08-01T10:33:39;2.65;;;2.42;;
27847;SDS011;15212;48.830;8.730;2022-08-01T10:36:08;2.55;;;1.77;;
27847;SDS011;15212;48.830;8.730;2022-08-01T10:38:37;3.65;;;2.27;;
27847;SDS011;15212;48.830;8.730;2022-08-01T10:41:06;4.72;;;2.50;;
27847;SDS011;15212;48.830;8.730;2022-08-01T10:43:36;3.27;;;2.35;;
27847;SDS011;15212;48.830;8.730;2022-08-01T10:46:05;3.72;;;2.60;;
27847;SDS011;15212;48.830;8.730;2022-08-01T10:48:38;3.87;;;2.40;;
27847;SDS011;15212;48.830;8.730;2022-08-01T10:51:15;2.20;;;1.98;;
27847;SDS011;15212;48.830;8.730;2022-08-01T10:53:47;4.30;;;2.22;;
27847;SDS011;15212;48.830;8.730;2022-08-01T10:56:19;5.00;;;2.50;;
27847;SDS011;15212;48.830;8.730;2022-08-01T10:58:54;3.72;;;2.65;;
27847;SDS011;15212;48.830;8.730;2022-08-01T11:01:30;3.65;;;2.20;;
27847;SDS011;15212;48.830;8.730;2022-08-01T11:09:26;2.87;;;2.30;;
27847;SDS011;15212;48.830;8.730;2022-08-01T11:12:01;4.12;;;2.35;;
27847;SDS011;15212;48.830;8.730;2022-08-01T11:15:22;6.80;;;2.70;;
27847;SDS011;15212;48.830;8.730;2022-08-01T11:17:40;4.05;;;2.45;;
27847;SDS011;15212;48.830;8.730;2022-08-01T11:30:46;5.08;;;2.30;;
27847;SDS011;15212;48.830;8.730;2022-08-01T11:33:18;2.98;;;2.60;;
27847;SDS011;15212;48.830;8.730;2022-08-01T11:38:46;3.13;;;2.60;;
27847;SDS011;15212;48.830;8.730;2022-08-01T11:41:24;3.83;;;2.40;;
27847;SDS011;15212;48.830;8.730;2022-08-01T11:44:08;6.28;;;2.37;;
27847;SDS011;15212;48.830;8.730;2022-08-01T11:52:08;3.27;;;2.40;;
27847;SDS011;15212;48.830;8.730;2022-08-01T11:54:47;4.70;;;2.37;;
27847;SDS011;15212;48.830;8.730;2022-08-01T11:57:31;2.83;;;2.15;;
27847;SDS011;15212;48.830;8.730;2022-08-01T12:00:06;3.62;;;2.30;;
27847;SDS011;15212;48.830;8.730;2022-08-01T12:02:39;3.20;;;2.20;;
27847;SDS011;15212;48.830;8.730;2022-08-01T12:05:15;2.77;;;2.22;;
27847;SDS011;15212;48.830;8.730;2022-08-01T12:07:49;3.95;;;1.95;;
27847;SDS011;15212;48.830;8.730;2022-08-01T12:10:22;2.83;;;2.10;;
27847;SDS011;15212;48.830;8.730;2022-08-01T12:13:01;3.45;;;2.20;;
27847;SDS011;15212;48.830;8.730;2022-08-01T12:15:35;4.27;;;2.30;;
27847;SDS011;15212;48.830;8.730;2022-08-01T12:18:04;5.22;;;2.12;;
27847;SDS011;15212;48.830;8.730;2022-08-01T12:20:34;2.87;;;1.92;;
27847;SDS011;15212;48.830;8.730;2022-08-01T12:23:08;4.40;;;2.20;;
27847;SDS011;15212;48.830;8.730;2022-08-01T12:25:39;3.33;;;2.10;;
27847;SDS011;15212;48.830;8.730;2022-08-01T12:28:11;3.42;;;2.00;;
27847;SDS011;15212;48.830;8.730;2022-08-01T12:30:39;2.37;;;1.90;;
27847;SDS011;15212;48.830;8.730;2022-08-01T12:33:09;4.37;;;2.50;;
27847;SDS011;15212;48.830;8.730;2022-08-01T12:35:41;4.17;;;1.92;;
27847;SDS011;15212;48.830;8.730;2022-08-01T12:38:19;2.87;;;2.25;;
27847;SDS011;15212;48.830;8.730;2022-08-01T12:40:50;4.78;;;2.90;;
27847;SDS011;15212;48.830;8.730;2022-08-01T12:43:19;6.10;;;3.90;;
27847;SDS011;15212;48.830;8.730;2022-08-01T12:45:51;3.37;;;2.42;;
27847;SDS011;15212;48.830;8.730;2022-08-01T12:48:21;4.33;;;2.42;;
27847;SDS011;15212;48.830;8.730;2022-08-01T12:50:51;3.20;;;2.10;;
27847;SDS011;15212;48.830;8.730;2022-08-01T12:53:22;3.25;;;1.98;;
27847;SDS011;15212;48.830;8.730;2022-08-01T12:55:51;4.30;;;2.27;;
27847;SDS011;15212;48.830;8.730;2022-08-01T12:58:21;3.65;;;2.05;;
27847;SDS011;15212;48.830;8.730;2022-08-01T13:00:50;4.28;;;2.00;;
27847;SDS011;15212;48.830;8.730;2022-08-01T13:03:23;2.98;;;1.85;;
27847;SDS011;15212;48.830;8.730;2022-08-01T13:08:33;4.70;;;2.47;;
27847;SDS011;15212;48.830;8.730;2022-08-01T13:11:07;2.98;;;2.12;;
27847;SDS011;15212;48.830;8.730;2022-08-01T13:13:44;3.77;;;2.10;;
27847;SDS011;15212;48.830;8.730;2022-08-01T13:16:22;2.85;;;2.10;;
27847;SDS011;15212;48.830;8.730;2022-08-01T13:18:53;3.25;;;1.90;;
27847;SDS011;15212;48.830;8.730;2022-08-01T13:21:24;6.80;;;2.27;;
27847;SDS011;15212;48.830;8.730;2022-08-01T13:24:00;3.87;;;1.75;;
27847;SDS011;15212;48.830;8.730;2022-08-01T13:26:51;4.87;;;2.15;;
27847;SDS011;15212;48.830;8.730;2022-08-01T13:29:34;3.67;;;2.05;;
27847;SDS011;15212;48.830;8.730;2022-08-01T13:32:17;2.40;;;1.87;;
27847;SDS011;15212;48.830;8.730;2022-08-01T13:34:47;3.98;;;2.05;;
27847;SDS011;15212;48.830;8.730;2022-08-01T13:37:16;4.20;;;2.10;;
27847;SDS011;15212;48.830;8.730;2022-08-01T13:39:44;5.22;;;1.82;;
27847;SDS011;15212;48.830;8.730;2022-08-01T13:42:14;2.87;;;1.82;;
27847;SDS011;15212;48.830;8.730;2022-08-01T13:44:43;5.33;;;2.05;;
27847;SDS011;15212;48.830;8.730;2022-08-01T13:47:12;3.83;;;1.98;;
27847;SDS011;15212;48.830;8.730;2022-08-01T13:49:40;6.28;;;2.17;;
27847;SDS011;15212;48.830;8.730;2022-08-01T13:52:09;2.20;;;1.77;;
27847;SDS011;15212;48.830;8.730;2022-08-01T13:54:37;8.20;;;1.90;;
27847;SDS011;15212;48.830;8.730;2022-08-01T13:57:06;2.87;;;1.77;;
27847;SDS011;15212;48.830;8.730;2022-08-01T13:59:35;3.92;;;1.72;;
27847;SDS011;15212;48.830;8.730;2022-08-01T14:02:03;4.47;;;2.05;;
27847;SDS011;15212;48.830;8.730;2022-08-01T14:04:32;3.00;;;2.30;;
27847;SDS011;15212;48.830;8.730;2022-08-01T14:07:00;4.58;;;2.10;;
27847;SDS011;15212;48.830;8.730;2022-08-01T14:09:28;4.83;;;1.90;;
27847;SDS011;15212;48.830;8.730;2022-08-01T14:11:59;3.45;;;1.87;;
27847;SDS011;15212;48.830;8.730;2022-08-01T14:14:27;2.17;;;1.65;;
27847;SDS011;15212;48.830;8.730;2022-08-01T14:16:56;3.35;;;1.80;;
27847;SDS011;15212;48.830;8.730;2022-08-01T14:19:24;3.92;;;1.72;;
27847;SDS011;15212;48.830;8.730;2022-08-01T14:21:52;2.80;;;1.85;;
27847;SDS011;15212;48.830;8.730;2022-08-01T14:24:23;2.70;;;1.82;;
27847;SDS011;15212;48.830;8.730;2022-08-01T14:26:52;3.10;;;1.82;;
27847;SDS011;15212;48.830;8.730;2022-08-01T14:29:21;3.92;;;1.90;;
27847;SDS011;15212;48.830;8.730;2022-08-01T14:31:49;2.60;;;1.82;;
27847;SDS011;15212;48.830;8.730;2022-08-01T14:34:17;9.80;;;2.37;;
27847;SDS011;15212;48.830;8.730;2022-08-01T14:36:46;4.03;;;1.67;;
27847;SDS011;15212;48.830;8.730;2022-08-01T14:39:14;3.30;;;1.95;;
27847;SDS011;15212;48.830;8.730;2022-08-01T14:41:42;2.30;;;1.70;;
27847;SDS011;15212;48.830;8.730;2022-08-01T14:44:11;4.40;;;1.70;;
27847;SDS011;15212;48.830;8.730;2022-08-01T14:46:39;2.33;;;1.72;;
27847;SDS011;15212;48.830;8.730;2022-08-01T14:49:10;2.87;;;1.90;;
27847;SDS011;15212;48.830;8.730;2022-08-01T14:51:38;4.10;;;1.70;;
27847;SDS011;15212;48.830;8.730;2022-08-01T14:54:06;3.47;;;1.87;;
27847;SDS011;15212;48.830;8.730;2022-08-01T14:56:35;4.97;;;1.82;;
27847;SDS011;15212;48.830;8.730;2022-08-01T14:59:03;2.10;;;1.55;;
27847;SDS011;15212;48.830;8.730;2022-08-01T15:01:31;3.80;;;2.00;;
27847;SDS011;15212;48.830;8.730;2022-08-01T15:04:00;2.25;;;1.40;;
27847;SDS011;15212;48.830;8.730;2022-08-01T15:06:28;3.35;;;1.70;;
27847;SDS011;15212;48.830;8.730;2022-08-01T15:08:57;2.83;;;1.57;;
27847;SDS011;15212;48.830;8.730;2022-08-01T15:11:25;2.30;;;1.60;;
27847;SDS011;15212;48.830;8.730;2022-08-01T15:13:53;3.30;;;1.40;;
27847;SDS011;15212;48.830;8.730;2022-08-01T15:16:39;4.62;;;1.82;;
27847;SDS011;15212;48.830;8.730;2022-08-01T15:19:08;2.62;;;1.40;;
27847;SDS011;15212;48.830;8.730;2022-08-01T15:21:36;2.77;;;1.62;;
27847;SDS011;15212;48.830;8.730;2022-08-01T15:24:05;1.52;;;1.32;;
27847;SDS011;15212;48.830;8.730;2022-08-01T15:26:34;4.17;;;1.60;;
27847;SDS011;15212;48.830;8.730;2022-08-01T15:29:03;2.27;;;1.50;;
27847;SDS011;15212;48.830;8.730;2022-08-01T15:31:31;4.35;;;1.45;;
27847;SDS011;15212;48.830;8.730;2022-08-01T15:34:00;3.52;;;1.35;;
27847;SDS011;15212;48.830;8.730;2022-08-01T15:36:28;3.45;;;1.05;;
27847;SDS011;15212;48.830;8.730;2022-08-01T15:38:56;1.47;;;1.05;;
27847;SDS011;15212;48.830;8.730;2022-08-01T15:41:25;2.92;;;1.35;;
27847;SDS011;15212;48.830;8.730;2022-08-01T15:43:53;1.80;;;1.10;;
27847;SDS011;15212;48.830;8.730;2022-08-01T15:46:22;2.05;;;1.02;;
27847;SDS011;15212;48.830;8.730;2022-08-01T15:48:51;1.07;;;0.98;;
27847;SDS011;15212;48.830;8.730;2022-08-01T15:51:19;1.32;;;0.95;;
27847;SDS011;15212;48.830;8.730;2022-08-01T15:53:49;2.58;;;1.07;;